Time;durP1;ratioP1;P1;durP2;ratioP2;P2;SDS_P1;SDS_P2;PMS_P1;PMS_P2;Temp;Humidity;BMP_temperature;BMP_pressure;BME280_temperature;BME280_humidity;BME280_pressure;Samples;Min_cycle;Max_cycle;Signal;HPM_P1;HPM_P2
2022/11/08 00:02:32;;;;;;;11.95;6.72;;;21.60;99.90;;;;;;5079733;28;20036;-45
2022/11/08 00:04:57;;;;;;;12.05;6.55;;;21.60;99.90;;;;;;5082760;28;20032;-46
2022/11/08 00:15:37;;;;;;;10.32;6.32;;;21.60;99.90;;;;;;5076154;28;20169;-46
2022/11/08 00:18:06;;;;;;;12.68;6.55;;;21.60;99.90;;;;;;5074588;28;20115;-46
2022/11/08 00:20:32;;;;;;;11.68;5.82;;;21.50;99.90;;;;;;5074028;28;20028;-47
2022/11/08 00:22:58;;;;;;;11.45;5.22;;;21.50;99.90;;;;;;5073692;28;21328;-47
2022/11/08 00:25:24;;;;;;;8.68;5.80;;;21.50;99.90;;;;;;5078586;28;20115;-47
2022/11/08 00:27:49;;;;;;;10.95;5.45;;;21.50;99.90;;;;;;5074376;28;20085;-47
2022/11/08 00:30:15;;;;;;;9.55;5.38;;;21.40;99.90;;;;;;5073976;28;20048;-46
2022/11/08 00:32:41;;;;;;;10.10;5.97;;;21.40;99.90;;;;;;5075022;28;20044;-47
2022/11/08 00:35:07;;;;;;;10.25;5.72;;;21.40;99.90;;;;;;5076504;28;20038;-48
2022/11/08 00:37:33;;;;;;;8.00;4.93;;;21.40;99.90;;;;;;5081951;28;20028;-48
2022/11/08 00:39:58;;;;;;;12.13;6.05;;;21.30;99.90;;;;;;5080125;28;20027;-47
2022/11/08 00:42:24;;;;;;;7.63;4.90;;;21.30;99.90;;;;;;5086652;28;20034;-47
2022/11/08 00:44:50;;;;;;;7.78;5.28;;;21.30;99.90;;;;;;5079666;28;20068;-47
2022/11/08 00:47:16;;;;;;;8.55;5.15;;;21.30;99.90;;;;;;5078156;28;20020;-47
2022/11/08 00:49:42;;;;;;;7.05;4.57;;;21.30;99.90;;;;;;5087704;28;20067;-47
2022/11/08 00:52:08;;;;;;;9.32;5.13;;;21.30;99.90;;;;;;5073369;28;20104;-47
2022/11/08 00:54:33;;;;;;;9.15;5.70;;;21.30;99.90;;;;;;5073550;28;20107;-48
2022/11/08 00:56:59;;;;;;;6.32;4.82;;;21.20;99.90;;;;;;5088732;28;20111;-47
2022/11/08 00:59:25;;;;;;;8.98;5.32;;;21.30;99.90;;;;;;5099821;22;20039;-44
2022/11/08 01:01:51;;;;;;;8.80;4.63;;;21.20;99.90;;;;;;5060584;28;20033;-45
2022/11/08 01:04:18;;;;;;;7.68;4.32;;;21.30;99.90;;;;;;5056612;28;20021;-42
2022/11/08 01:06:43;;;;;;;9.43;4.05;;;21.20;99.90;;;;;;5053784;28;20384;-44
2022/11/08 01:09:10;;;;;;;6.20;3.78;;;21.20;99.90;;;;;;5064395;28;20037;-45
2022/11/08 01:11:37;;;;;;;10.27;4.80;;;21.20;99.90;;;;;;5053117;28;20476;-48
2022/11/08 01:14:03;;;;;;;7.72;3.33;;;21.20;99.90;;;;;;5069294;28;20082;-46
2022/11/08 01:16:31;;;;;;;7.13;3.47;;;21.10;99.90;;;;;;5063918;28;20025;-44
2022/11/08 01:18:59;;;;;;;7.85;3.90;;;21.10;99.90;;;;;;5055605;28;20083;-44
2022/11/08 01:21:25;;;;;;;9.85;4.35;;;21.10;99.90;;;;;;5068291;28;20020;-46
2022/11/08 01:23:53;;;;;;;10.43;4.70;;;21.10;99.90;;;;;;5069829;28;20475;-45
2022/11/08 01:26:22;;;;;;;6.93;4.72;;;21.00;99.90;;;;;;5053804;28;20052;-45
2022/11/08 01:28:47;;;;;;;6.35;4.00;;;21.00;99.90;;;;;;5068463;28;20128;-45
2022/11/08 01:31:16;;;;;;;8.32;4.38;;;21.00;99.90;;;;;;5053551;28;20112;-44
2022/11/08 01:33:43;;;;;;;7.45;4.40;;;20.90;99.90;;;;;;5067655;28;20025;-45
2022/11/08 01:36:10;;;;;;;11.73;5.10;;;21.00;99.90;;;;;;5069832;28;20019;-43
2022/11/08 01:38:36;;;;;;;5.38;3.90;;;21.00;99.90;;;;;;5067644;28;20082;-44
2022/11/08 01:41:03;;;;;;;7.65;3.50;;;20.90;99.90;;;;;;5069515;28;20024;-45
2022/11/08 01:43:28;;;;;;;6.75;3.88;;;20.90;99.90;;;;;;5068475;28;20033;-43
2022/11/08 01:46:28;;;;;;;7.15;4.25;;;20.90;99.90;;;;;;5066389;28;20388;-44
2022/11/08 01:49:18;;;;;;;5.55;3.28;;;20.90;99.90;;;;;;5055924;28;20068;-45
2022/11/08 01:51:54;;;;;;;5.93;3.20;;;20.90;99.90;;;;;;5065703;28;20032;-42
2022/11/08 01:54:34;;;;;;;7.15;3.60;;;20.90;99.90;;;;;;5047189;28;20108;-43
2022/11/08 01:57:02;;;;;;;10.57;3.92;;;20.90;99.90;;;;;;5052168;28;20912;-42
2022/11/08 01:59:28;;;;;;;7.68;3.42;;;20.90;99.90;;;;;;5069549;22;20028;-46
2022/11/08 02:01:55;;;;;;;6.45;3.55;;;20.90;99.90;;;;;;5049986;28;20056;-46
2022/11/08 02:04:21;;;;;;;5.23;3.47;;;20.90;99.90;;;;;;5050752;28;20095;-46
2022/11/08 02:06:47;;;;;;;5.65;3.42;;;20.90;99.90;;;;;;5052960;28;20037;-46
2022/11/08 02:09:17;;;;;;;6.05;3.92;;;20.90;99.90;;;;;;5017186;28;20043;-46
2022/11/08 02:11:45;;;;;;;8.00;4.38;;;20.90;99.90;;;;;;5049843;28;20092;-45
2022/11/08 02:14:11;;;;;;;10.65;5.63;;;20.90;99.90;;;;;;5053225;28;20094;-46
2022/11/08 02:16:37;;;;;;;6.85;3.53;;;20.90;99.90;;;;;;5052834;28;20461;-47
2022/11/08 02:19:04;;;;;;;8.40;2.80;;;20.90;99.90;;;;;;5052808;28;20021;-47
2022/11/08 02:21:50;;;;;;;23.05;3.65;;;21.00;99.90;;;;;;5053049;28;20485;-46
2022/11/08 02:24:16;;;;;;;4.10;2.70;;;21.20;99.90;;;;;;5052723;28;20013;-47
2022/11/08 02:27:07;;;;;;;4.85;3.15;;;21.30;99.90;;;;;;5052642;28;20056;-45
2022/11/08 02:29:35;;;;;;;8.52;2.90;;;21.50;99.90;;;;;;5035022;28;20367;-45
2022/11/08 02:32:01;;;;;;;;;;;21.60;99.90;;;;;;5052953;28;20079;-45
2022/11/08 02:34:33;;;;;;;4.15;2.63;;;21.70;99.90;;;;;;5051599;28;19928;-45
2022/11/08 02:37:00;;;;;;;6.50;3.30;;;21.80;99.90;;;;;;5047224;28;20037;-48
2022/11/08 02:39:27;;;;;;;5.40;2.63;;;22.00;99.90;;;;;;5052492;28;20032;-46
2022/11/08 02:41:54;;;;;;;5.00;2.83;;;22.00;99.90;;;;;;5052767;28;20029;-47
2022/11/08 02:44:19;;;;;;;5.03;2.92;;;22.20;99.90;;;;;;5034722;28;20017;-46
2022/11/08 02:46:46;;;;;;;9.00;2.97;;;22.30;99.90;;;;;;5049820;28;20017;-45
2022/11/08 02:49:12;;;;;;;7.05;3.10;;;22.30;99.90;;;;;;5002999;28;20037;-46
2022/11/08 02:51:38;;;;;;;3.88;2.70;;;22.40;99.90;;;;;;5052813;28;20024;-46
2022/11/08 02:54:03;;;;;;;6.32;3.20;;;22.50;99.90;;;;;;5052449;28;20107;-46
2022/11/08 02:56:29;;;;;;;5.28;3.28;;;22.60;99.90;;;;;;5052565;28;20072;-45
2022/11/08 02:58:55;;;;;;;5.65;2.72;;;22.70;99.90;;;;;;5052650;28;20038;-46
2022/11/08 03:01:21;;;;;;;8.00;2.95;;;22.70;99.90;;;;;;5052719;28;20076;-46
2022/11/08 03:03:47;;;;;;;5.00;3.22;;;22.80;99.90;;;;;;5052460;28;20028;-46
2022/11/08 03:06:13;;;;;;;5.43;2.88;;;22.80;99.90;;;;;;5052415;28;20021;-46
2022/11/08 03:08:38;;;;;;;6.65;2.80;;;22.90;99.90;;;;;;5052628;28;20557;-47
2022/11/08 03:11:05;;;;;;;4.55;2.42;;;22.90;99.90;;;;;;5056281;28;20025;-47
2022/11/08 03:13:31;;;;;;;4.22;3.03;;;23.00;99.90;;;;;;5056491;28;20131;-47
2022/11/08 03:15:56;;;;;;;5.93;3.25;;;23.00;99.90;;;;;;5056453;28;20096;-47
2022/11/08 03:18:22;;;;;;;9.15;2.95;;;23.10;99.90;;;;;;5056079;28;20031;-48
2022/11/08 03:20:48;;;;;;;4.18;3.00;;;23.10;99.90;;;;;;5054993;28;20021;-48
2022/11/08 03:23:13;;;;;;;5.28;2.70;;;23.10;99.90;;;;;;5054846;28;20020;-47
2022/11/08 03:25:39;;;;;;;5.57;2.60;;;23.20;99.90;;;;;;5055893;28;20063;-48
2022/11/08 03:28:06;;;;;;;6.55;3.22;;;23.20;99.90;;;;;;5056048;28;20083;-47
2022/11/08 03:30:33;;;;;;;5.10;2.60;;;23.20;99.90;;;;;;5056347;28;20048;-47
2022/11/08 03:32:59;;;;;;;4.83;2.83;;;23.20;99.90;;;;;;5038811;28;20026;-47
2022/11/08 03:35:25;;;;;;;3.67;2.75;;;23.30;99.90;;;;;;5053713;28;20277;-47
2022/11/08 03:37:55;;;;;;;3.50;2.83;;;23.30;99.90;;;;;;5038399;28;20017;-48
2022/11/08 03:40:21;;;;;;;5.35;2.85;;;23.30;99.90;;;;;;5054992;28;20056;-48
2022/11/08 03:42:47;;;;;;;3.72;2.35;;;23.40;99.90;;;;;;5036369;28;20478;-48
2022/11/08 03:45:14;;;;;;;5.45;2.90;;;23.40;99.90;;;;;;5054199;28;20033;-47
2022/11/08 03:47:42;;;;;;;3.92;3.00;;;23.40;99.90;;;;;;5054321;28;20489;-47
2022/11/08 03:50:09;;;;;;;5.20;3.30;;;23.40;99.90;;;;;;5055753;28;20029;-47
2022/11/08 03:52:46;;;;;;;3.53;2.73;;;23.40;99.90;;;;;;5054998;28;20017;-47
2022/11/08 03:55:12;;;;;;;3.17;2.30;;;23.50;99.90;;;;;;5054225;28;20035;-47
2022/11/08 03:57:42;;;;;;;5.10;2.65;;;23.40;99.90;;;;;;5055646;28;20044;-47
2022/11/08 04:00:10;;;;;;;5.63;3.13;;;23.50;99.90;;;;;;5079335;22;20040;-44
2022/11/08 04:02:35;;;;;;;5.85;2.80;;;23.50;99.90;;;;;;5094520;28;20435;-44
2022/11/08 04:05:01;;;;;;;4.40;2.80;;;23.50;99.90;;;;;;5095759;28;20020;-44
2022/11/08 04:07:27;;;;;;;8.02;3.25;;;23.50;99.90;;;;;;5091613;28;20156;-45
2022/11/08 04:09:56;;;;;;;3.25;2.63;;;23.50;99.90;;;;;;5094991;28;20036;-44
2022/11/08 04:15:13;;;;;;;8.52;4.75;;;23.60;99.90;;;;;;5095879;28;20132;-45
2022/11/08 04:23:09;;;;;;;5.10;2.45;;;23.60;99.90;;;;;;5095690;28;20035;-45
2022/11/08 04:25:35;;;;;;;3.95;2.63;;;23.60;99.90;;;;;;5095168;28;20020;-45
2022/11/08 04:28:00;;;;;;;5.50;3.30;;;23.60;99.90;;;;;;5095549;28;20055;-45
2022/11/08 04:30:26;;;;;;;3.67;2.42;;;23.60;99.90;;;;;;5095451;28;20024;-45
2022/11/08 04:32:52;;;;;;;2.90;2.63;;;23.60;99.90;;;;;;5081260;28;20020;-45
2022/11/08 04:35:18;;;;;;;4.82;2.70;;;23.60;99.90;;;;;;5095372;28;20522;-49
2022/11/08 04:37:44;;;;;;;3.92;2.58;;;23.60;99.90;;;;;;5077320;28;20460;-45
2022/11/08 04:40:10;;;;;;;5.35;2.58;;;23.60;99.90;;;;;;5077172;28;20487;-45
2022/11/08 04:42:36;;;;;;;4.53;2.90;;;23.60;99.90;;;;;;5095141;28;20070;-44
2022/11/08 04:45:02;;;;;;;3.53;2.80;;;23.60;99.90;;;;;;5095157;28;20032;-44
2022/11/08 04:47:28;;;;;;;5.40;3.13;;;23.60;99.90;;;;;;5095068;28;20043;-44
2022/11/08 04:49:53;;;;;;;4.25;2.75;;;23.60;99.90;;;;;;5094818;28;20392;-44
2022/11/08 04:52:20;;;;;;;4.25;2.85;;;23.60;99.90;;;;;;5076879;28;20528;-45
2022/11/08 04:54:46;;;;;;;3.55;2.80;;;23.60;99.90;;;;;;5076674;28;20031;-44
2022/11/08 04:57:12;;;;;;;6.35;2.63;;;23.60;99.90;;;;;;5094803;28;20051;-44
2022/11/08 04:59:38;;;;;;;5.00;2.88;;;23.60;99.90;;;;;;5095217;28;20489;-45
2022/11/08 05:02:04;;;;;;;4.43;2.92;;;23.60;99.90;;;;;;5077208;28;20107;-44
2022/11/08 05:04:30;;;;;;;3.72;2.65;;;23.60;99.90;;;;;;5094762;28;20020;-44
2022/11/08 05:06:56;;;;;;;4.47;3.30;;;23.60;99.90;;;;;;5094505;28;20059;-44
2022/11/08 05:09:22;;;;;;;3.38;2.83;;;23.60;99.90;;;;;;5076295;28;20449;-45
2022/11/08 05:11:47;;;;;;;3.70;2.70;;;23.70;99.90;;;;;;5094430;28;20057;-44
2022/11/08 05:14:13;;;;;;;3.65;2.95;;;23.60;99.90;;;;;;5094584;28;20095;-45
2022/11/08 05:16:39;;;;;;;3.78;3.05;;;23.60;99.90;;;;;;5094864;28;20372;-45
2022/11/08 05:19:05;;;;;;;4.55;2.75;;;23.60;99.90;;;;;;5094325;28;20428;-44
2022/11/08 05:24:16;;;;;;;4.05;2.72;;;23.60;99.90;;;;;;5094480;28;20077;-44
2022/11/08 05:26:44;;;;;;;3.13;2.65;;;23.60;99.90;;;;;;5094470;28;20020;-49
2022/11/08 05:29:12;;;;;;;5.22;3.10;;;23.60;99.90;;;;;;5076047;28;20445;-44
2022/11/08 05:31:38;;;;;;;3.03;2.40;;;23.60;99.90;;;;;;5093812;28;20035;-46
2022/11/08 05:34:04;;;;;;;3.95;2.90;;;23.60;99.90;;;;;;5092806;28;20024;-44
2022/11/08 05:36:30;;;;;;;4.55;3.00;;;23.70;99.90;;;;;;5093875;28;20043;-44
2022/11/08 05:38:56;;;;;;;3.67;2.70;;;23.70;99.90;;;;;;5075943;28;20029;-44
2022/11/08 05:41:24;;;;;;;3.28;2.65;;;23.70;99.90;;;;;;5075951;28;20020;-43
2022/11/08 05:43:50;;;;;;;;;;;23.60;99.90;;;;;;5094428;28;20032;-44
2022/11/08 05:46:17;;;;;;;3.15;2.85;;;23.60;99.90;;;;;;5094102;28;20318;-46
2022/11/08 05:48:45;;;;;;;6.53;3.38;;;23.70;99.90;;;;;;5093834;28;20609;-45
2022/11/08 05:51:11;;;;;;;;;;;23.70;99.90;;;;;;5094128;28;20421;-45
2022/11/08 05:53:38;;;;;;;5.65;3.63;;;23.60;99.90;;;;;;5093927;28;19907;-45
2022/11/08 05:56:04;;;;;;;5.45;2.90;;;23.60;99.90;;;;;;5093852;28;20027;-45
2022/11/08 05:58:32;;;;;;;5.45;3.55;;;23.60;99.90;;;;;;5093935;28;20020;-45
2022/11/08 06:01:05;;;;;;;;;;;23.60;99.90;;;;;;5093922;28;20101;-45
2022/11/08 06:03:31;;;;;;;4.32;3.25;;;23.70;99.90;;;;;;5093661;28;19950;-45
2022/11/08 06:06:09;;;;;;;3.95;3.10;;;23.60;99.90;;;;;;5093550;28;20019;-45
2022/11/08 06:08:35;;;;;;;;;;;23.60;99.90;;;;;;5093825;28;20027;-44
2022/11/08 06:11:09;;;;;;;3.78;3.00;;;23.60;99.90;;;;;;5093559;28;19981;-44
2022/11/08 06:13:35;;;;;;;3.67;2.95;;;23.60;99.90;;;;;;5093432;28;20430;-44
2022/11/08 06:16:03;;;;;;;4.22;3.00;;;23.60;99.90;;;;;;5093345;28;20080;-45
2022/11/08 06:18:30;;;;;;;3.25;2.75;;;23.60;99.90;;;;;;5093527;28;20031;-45
2022/11/08 06:21:01;;;;;;;3.33;2.83;;;23.60;99.90;;;;;;5093323;28;20024;-45
2022/11/08 06:23:27;;;;;;;4.55;3.78;;;23.60;99.90;;;;;;5093432;28;20119;-45
2022/11/08 06:25:53;;;;;;;5.18;3.05;;;23.70;99.90;;;;;;5093338;28;20429;-44
2022/11/08 06:28:19;;;;;;;4.35;3.55;;;23.60;99.90;;;;;;5093140;28;20121;-44
2022/11/08 06:30:45;;;;;;;3.30;2.97;;;23.60;99.90;;;;;;5093505;28;20062;-45
2022/11/08 06:33:11;;;;;;;5.88;3.25;;;23.60;99.90;;;;;;5093052;28;20095;-45
2022/11/08 06:35:37;;;;;;;4.43;3.20;;;23.60;99.90;;;;;;5093156;28;20537;-45
2022/11/08 06:38:03;;;;;;;3.60;2.90;;;23.60;99.90;;;;;;5075093;28;20028;-44
2022/11/08 06:40:31;;;;;;;4.72;3.00;;;23.60;99.90;;;;;;5093143;28;20503;-43
2022/11/08 06:42:58;;;;;;;3.90;2.92;;;23.60;99.90;;;;;;5093143;28;20480;-43
2022/11/08 06:45:27;;;;;;;4.67;3.50;;;23.60;99.90;;;;;;5092408;28;20021;-47
2022/11/08 06:48:00;;;;;;;3.35;3.03;;;23.70;99.90;;;;;;5092918;28;20317;-45
2022/11/08 06:50:27;;;;;;;4.72;3.10;;;23.60;99.90;;;;;;5093086;28;20028;-44
2022/11/08 06:53:00;;;;;;;4.22;2.70;;;23.70;99.90;;;;;;5074779;28;20074;-44
2022/11/08 06:55:26;;;;;;;4.57;3.10;;;23.70;99.90;;;;;;5093103;28;20021;-44
2022/11/08 06:57:52;;;;;;;6.00;3.08;;;23.70;99.90;;;;;;5093091;28;20038;-44
2022/11/08 07:00:18;;;;;;;3.90;3.08;;;23.70;99.90;;;;;;5092803;28;20391;-45
2022/11/08 07:02:44;;;;;;;3.28;2.97;;;23.70;99.90;;;;;;5093053;28;20026;-45
2022/11/08 07:05:11;;;;;;;4.53;2.92;;;23.70;99.90;;;;;;5075207;28;20028;-45
2022/11/08 07:07:37;;;;;;;4.90;2.70;;;23.70;99.90;;;;;;5093007;28;20028;-45
2022/11/08 07:10:04;;;;;;;5.68;3.17;;;23.70;99.90;;;;;;5092639;28;20036;-45
2022/11/08 07:12:30;;;;;;;5.00;2.60;;;23.70;99.90;;;;;;5092687;28;20013;-45
2022/11/08 07:14:56;;;;;;;6.70;2.88;;;23.70;99.90;;;;;;5092728;28;20521;-45
2022/11/08 07:17:21;;;;;;;3.88;2.90;;;23.70;99.90;;;;;;5092722;28;20021;-45
2022/11/08 07:19:47;;;;;;;4.53;2.80;;;23.70;99.90;;;;;;5092804;28;20040;-45
2022/11/08 07:22:13;;;;;;;5.57;3.30;;;23.70;99.90;;;;;;5092646;28;20012;-45
2022/11/08 07:24:39;;;;;;;3.67;3.03;;;23.70;99.90;;;;;;5092644;28;20036;-45
2022/11/08 07:27:04;;;;;;;4.63;2.72;;;23.70;99.90;;;;;;5092632;28;20020;-45
2022/11/08 07:29:30;;;;;;;4.75;2.60;;;23.70;99.90;;;;;;5074315;28;20059;-45
2022/11/08 07:31:56;;;;;;;5.13;3.22;;;23.70;99.90;;;;;;5092707;28;20059;-45
2022/11/08 07:34:23;;;;;;;4.20;3.08;;;23.70;99.90;;;;;;5092643;28;20057;-45
2022/11/08 07:36:48;;;;;;;6.53;3.10;;;23.70;99.90;;;;;;5092780;28;20008;-45
2022/11/08 07:39:14;;;;;;;5.03;2.80;;;23.70;99.90;;;;;;5092416;28;20751;-45
2022/11/08 07:41:40;;;;;;;4.70;2.90;;;23.70;99.90;;;;;;5092369;28;20099;-45
2022/11/08 07:44:06;;;;;;;7.85;3.30;;;23.70;99.90;;;;;;5092497;28;20008;-43
2022/11/08 07:46:31;;;;;;;3.97;3.00;;;23.70;99.90;;;;;;5092854;28;20020;-44
2022/11/08 07:48:57;;;;;;;4.95;3.10;;;23.70;99.90;;;;;;5092353;28;20542;-44
2022/11/08 07:51:23;;;;;;;5.95;3.78;;;23.70;99.90;;;;;;5092458;28;20472;-45
2022/11/08 07:53:49;;;;;;;4.38;3.53;;;23.80;99.90;;;;;;5092192;28;20028;-45
2022/11/08 07:56:14;;;;;;;5.88;3.38;;;23.80;99.90;;;;;;5075326;28;20024;-45
2022/11/08 07:58:40;;;;;;;4.20;2.85;;;23.80;99.90;;;;;;5096011;28;20038;-44
2022/11/08 08:01:06;;;;;;;4.00;3.00;;;23.80;99.90;;;;;;5095657;28;20048;-45
2022/11/08 08:03:32;;;;;;;7.32;3.50;;;23.80;99.90;;;;;;5095927;28;20046;-44
2022/11/08 08:05:58;;;;;;;5.13;3.33;;;23.80;99.90;;;;;;5095840;28;20409;-44
2022/11/08 08:08:24;;;;;;;4.05;2.97;;;23.80;99.90;;;;;;5095608;28;20077;-48
2022/11/08 08:10:50;;;;;;;4.93;3.58;;;23.80;99.90;;;;;;5095807;28;20016;-44
2022/11/08 08:13:18;;;;;;;4.82;3.17;;;23.80;99.90;;;;;;5095748;28;20016;-43
2022/11/08 08:15:43;;;;;;;4.53;3.35;;;23.80;99.90;;;;;;5095528;28;20016;-44
2022/11/08 08:18:10;;;;;;;3.72;2.40;;;23.80;99.90;;;;;;5095787;28;20494;-45
2022/11/08 08:20:37;;;;;;;7.65;3.75;;;23.90;99.90;;;;;;5095609;28;20016;-45
2022/11/08 08:23:03;;;;;;;6.82;3.38;;;23.90;99.90;;;;;;5095459;28;20365;-45
2022/11/08 08:25:30;;;;;;;4.28;3.25;;;23.90;99.90;;;;;;5095448;28;20527;-45
2022/11/08 08:27:59;;;;;;;3.00;2.63;;;23.90;99.90;;;;;;5095306;28;20052;-45
2022/11/08 08:30:25;;;;;;;5.65;3.42;;;23.90;99.90;;;;;;5095038;28;20028;-45
2022/11/08 08:32:59;;;;;;;10.48;3.70;;;23.90;99.90;;;;;;5095031;28;20525;-45
2022/11/08 08:35:25;;;;;;;6.25;3.53;;;23.90;99.90;;;;;;5095301;28;20036;-45
2022/11/08 08:37:50;;;;;;;5.07;3.53;;;23.90;99.90;;;;;;5095177;28;20070;-46
2022/11/08 08:40:16;;;;;;;6.82;3.13;;;23.90;99.90;;;;;;5095327;28;20032;-45
2022/11/08 08:42:42;;;;;;;4.95;3.13;;;23.90;99.90;;;;;;5095085;28;20051;-45
2022/11/08 08:45:09;;;;;;;4.80;3.20;;;24.00;99.90;;;;;;5095119;28;20081;-45
2022/11/08 08:47:35;;;;;;;9.43;3.42;;;24.00;99.90;;;;;;5094838;28;20027;-45
2022/11/08 08:50:01;;;;;;;5.18;2.95;;;24.00;99.90;;;;;;5076695;28;20040;-45
2022/11/08 08:52:26;;;;;;;5.50;3.20;;;24.00;99.90;;;;;;5094868;28;20075;-45
2022/11/08 08:54:52;;;;;;;4.93;3.10;;;24.00;99.90;;;;;;5094840;28;20031;-45
2022/11/08 08:57:18;;;;;;;4.97;3.70;;;24.00;99.90;;;;;;5094652;28;20016;-45
2022/11/08 08:59:43;;;;;;;4.57;2.78;;;24.00;99.90;;;;;;5094745;28;20059;-45
2022/11/08 09:02:10;;;;;;;3.92;3.00;;;24.10;99.90;;;;;;5094939;28;20024;-45
2022/11/08 09:04:37;;;;;;;5.57;3.17;;;24.10;99.90;;;;;;5094580;28;20515;-45
2022/11/08 09:07:03;;;;;;;5.00;3.33;;;24.10;99.90;;;;;;5094029;28;20468;-45
2022/11/08 09:09:29;;;;;;;4.00;2.88;;;24.10;99.90;;;;;;5094561;28;20040;-45
2022/11/08 09:11:55;;;;;;;4.57;3.15;;;24.10;99.90;;;;;;5094489;28;20089;-45
2022/11/08 09:14:20;;;;;;;3.40;3.05;;;24.20;99.90;;;;;;5078283;28;20108;-44
2022/11/08 09:16:46;;;;;;;4.22;2.83;;;24.20;99.90;;;;;;5076343;28;20058;-47
2022/11/08 09:19:12;;;;;;;4.63;3.00;;;24.20;99.90;;;;;;5095157;28;20105;-45
2022/11/08 09:21:37;;;;;;;5.13;3.10;;;24.20;99.90;;;;;;5094493;28;20020;-44
2022/11/08 09:24:03;;;;;;;7.25;3.72;;;24.30;99.90;;;;;;5094175;28;20015;-44
2022/11/08 09:26:29;;;;;;;5.63;3.13;;;24.30;99.90;;;;;;5094265;28;20468;-44
2022/11/08 09:28:55;;;;;;;4.65;3.17;;;24.30;99.90;;;;;;5075792;28;20121;-44
2022/11/08 09:31:20;;;;;;;4.30;2.90;;;24.40;99.90;;;;;;5094073;28;20012;-44
2022/11/08 09:33:49;;;;;;;5.63;3.40;;;24.40;99.90;;;;;;5093942;28;20492;-44
2022/11/08 09:36:15;;;;;;;3.85;2.90;;;24.50;99.90;;;;;;5094129;28;20449;-44
2022/11/08 09:38:41;;;;;;;6.10;3.33;;;24.50;99.90;;;;;;5075794;28;20115;-44
2022/11/08 09:41:26;;;;;;;6.78;3.38;;;24.60;99.90;;;;;;5094066;28;20027;-44
2022/11/08 09:43:57;;;;;;;8.48;2.88;;;24.60;99.90;;;;;;5094060;28;20020;-45
2022/11/08 09:46:45;;;;;;;5.88;3.10;;;24.70;99.90;;;;;;5093992;28;20476;-45
2022/11/08 09:49:40;;;;;;;5.32;3.30;;;24.70;99.90;;;;;;5093775;28;20131;-44
2022/11/08 09:52:08;;;;;;;3.88;3.10;;;24.70;99.90;;;;;;5050788;28;20165;-44
2022/11/08 09:54:46;;;;;;;6.28;3.40;;;24.80;99.90;;;;;;5093579;28;20491;-45
2022/11/08 09:57:42;;;;;;;5.95;3.60;;;24.90;99.90;;;;;;5093748;28;20024;-44
2022/11/08 10:00:12;;;;;;;4.68;3.30;;;24.90;99.90;;;;;;5093576;28;20047;-44
2022/11/08 10:02:38;;;;;;;5.95;3.72;;;24.90;99.90;;;;;;5093564;28;20032;-44
2022/11/08 10:05:08;;;;;;;5.00;3.65;;;25.00;99.90;;;;;;5093458;28;20023;-44
2022/11/08 10:07:53;;;;;;;5.88;3.35;;;25.00;99.90;;;;;;5093433;28;20024;-44
2022/11/08 10:10:58;;;;;;;8.63;3.90;;;25.00;99.90;;;;;;5092122;28;20028;-44
2022/11/08 10:13:47;;;;;;;5.35;3.70;;;25.10;99.90;;;;;;5093391;28;20032;-45
2022/11/08 10:16:33;;;;;;;4.70;3.63;;;25.10;99.90;;;;;;5080250;28;20043;-44
2022/11/08 10:19:21;;;;;;;5.80;3.80;;;25.10;99.90;;;;;;5092507;28;20055;-45
2022/11/08 10:21:58;;;;;;;6.28;4.00;;;25.20;99.90;;;;;;5093157;28;20073;-46
2022/11/08 10:24:52;;;;;;;5.75;4.25;;;25.20;99.90;;;;;;5093245;28;20040;-45
2022/11/08 10:27:32;;;;;;;8.43;4.32;;;25.30;99.90;;;;;;5092887;28;20024;-45
2022/11/08 10:30:04;;;;;;;5.38;3.80;;;25.30;99.90;;;;;;5093056;28;20073;-45
2022/11/08 10:32:32;;;;;;;5.80;4.20;;;25.30;99.90;;;;;;5093113;28;20035;-45
2022/11/08 10:35:08;;;;;;;8.13;3.65;;;25.30;99.90;;;;;;5093202;28;20058;-44
2022/11/08 10:37:34;;;;;;;5.57;3.97;;;25.40;99.90;;;;;;5093083;28;20031;-44
2022/11/08 10:40:11;;;;;;;5.90;4.45;;;25.40;99.90;;;;;;5093311;28;20016;-44
2022/11/08 10:42:44;;;;;;;8.65;4.97;;;25.50;99.90;;;;;;5093146;28;20020;-44
2022/11/08 10:45:11;;;;;;;5.57;4.53;;;25.50;99.90;;;;;;5093151;28;20107;-44
2022/11/08 10:47:38;;;;;;;;;;;25.60;99.90;;;;;;5093407;28;20069;-44
2022/11/08 10:50:21;;;;;;;6.35;4.45;;;25.60;99.90;;;;;;5092745;28;20356;-45
2022/11/08 10:52:56;;;;;;;5.80;4.20;;;25.70;99.90;;;;;;5092973;28;20087;-44
2022/11/08 10:55:32;;;;;;;6.57;4.63;;;25.70;99.90;;;;;;5090834;28;20081;-44
2022/11/08 10:57:59;;;;;;;7.53;4.30;;;25.70;99.90;;;;;;5090642;28;20035;-44
2022/11/08 11:00:27;;;;;;;8.95;4.93;;;25.70;99.90;;;;;;5085380;28;20318;-44
2022/11/08 11:03:27;;;;;;;6.18;4.55;;;25.80;99.90;;;;;;5092456;28;20024;-44
2022/11/08 11:06:18;;;;;;;9.43;3.95;;;25.80;99.90;;;;;;5067645;28;20039;-44
2022/11/08 11:08:49;;;;;;;9.43;4.88;;;25.80;99.90;;;;;;5091142;28;20047;-44
2022/11/08 11:11:30;;;;;;;5.93;4.55;;;25.80;99.90;;;;;;5090926;28;20021;-44
2022/11/08 11:14:16;;;;;;;7.78;4.40;;;25.80;99.90;;;;;;5080173;28;20025;-44
2022/11/08 11:17:16;;;;;;;7.05;4.45;;;25.90;99.90;;;;;;5071774;28;20028;-44
2022/11/08 11:19:53;;;;;;;8.23;4.30;;;25.90;99.90;;;;;;5081324;28;20023;-44
2022/11/08 11:22:32;;;;;;;8.57;4.63;;;25.90;99.90;;;;;;5080520;28;20016;-44
2022/11/08 11:25:06;;;;;;;9.57;5.22;;;25.90;99.90;;;;;;5088604;28;20111;-45
2022/11/08 11:27:36;;;;;;;12.25;5.30;;;25.90;99.90;;;;;;5091937;28;20373;-45
2022/11/08 11:30:11;;;;;;;6.55;4.20;;;25.90;99.90;;;;;;5092875;28;20559;-45
2022/11/08 11:32:38;;;;;;;7.97;4.75;;;26.00;99.90;;;;;;5070106;28;20085;-45
2022/11/08 11:35:09;;;;;;;8.02;3.42;;;26.00;99.90;;;;;;5087569;28;20025;-45
2022/11/08 11:37:44;;;;;;;11.32;3.13;;;26.00;99.90;;;;;;5095518;28;20016;-45
2022/11/08 11:40:31;;;;;;;5.75;3.30;;;25.80;99.90;;;;;;5092904;28;20047;-45
2022/11/08 11:43:29;;;;;;;8.07;3.75;;;25.50;99.90;;;;;;5091942;28;20036;-45
2022/11/08 11:45:57;;;;;;;9.90;4.07;;;25.00;99.90;;;;;;5071119;28;20052;-45
2022/11/08 11:48:40;;;;;;;9.88;3.60;;;24.60;99.90;;;;;;5091414;28;20040;-45
2022/11/08 11:51:09;;;;;;;10.60;4.68;;;24.30;99.90;;;;;;5095953;28;20020;-44
2022/11/08 11:53:36;;;;;;;7.72;4.15;;;24.00;99.90;;;;;;5095998;28;20111;-44
2022/11/08 11:56:31;;;;;;;9.75;4.18;;;23.80;99.90;;;;;;5096057;28;20716;-44
2022/11/08 11:59:30;;;;;;;9.57;4.07;;;23.60;99.90;;;;;;5095841;28;20464;-44
2022/11/08 12:02:08;;;;;;;7.75;4.13;;;23.50;99.90;;;;;;5083714;28;20036;-44
2022/11/08 12:04:50;;;;;;;;;;;23.40;99.90;;;;;;5092555;28;20016;-44
2022/11/08 12:07:26;;;;;;;9.82;4.60;;;23.40;99.90;;;;;;5093700;28;19957;-44
2022/11/08 12:10:27;;;;;;;5.97;4.18;;;23.30;99.90;;;;;;5093354;28;20452;-44
2022/11/08 12:13:24;;;;;;;12.13;4.40;;;23.20;99.90;;;;;;5093678;28;20384;-44
2022/11/08 12:16:18;;;;;;;9.02;4.65;;;23.20;99.90;;;;;;5083108;28;20028;-45
2022/11/08 12:18:52;;;;;;;7.95;4.47;;;23.10;99.90;;;;;;5093304;28;20073;-44
2022/11/08 12:21:31;;;;;;;20.20;6.10;;;23.00;99.90;;;;;;5093289;28;20050;-44
2022/11/08 12:24:02;;;;;;;8.27;4.90;;;23.00;99.90;;;;;;5093617;28;20035;-45
2022/11/08 12:27:09;;;;;;;7.20;4.18;;;23.00;99.90;;;;;;5084340;28;20021;-44
2022/11/08 12:30:03;;;;;;;10.25;4.57;;;23.10;99.90;;;;;;5038683;28;20044;-43
2022/11/08 12:32:51;;;;;;;10.77;4.50;;;23.20;99.90;;;;;;5070000;28;20058;-42
2022/11/08 12:35:22;;;;;;;11.23;4.20;;;23.20;99.90;;;;;;5088811;28;20342;-45
2022/11/08 12:38:10;;;;;;;10.50;4.45;;;23.20;99.90;;;;;;5090108;28;20055;-45
2022/11/08 12:40:52;;;;;;;7.93;4.28;;;23.20;99.90;;;;;;5092668;28;20034;-44
2022/11/08 12:43:46;;;;;;;8.63;4.40;;;23.20;99.90;;;;;;5089382;28;20028;-45
2022/11/08 12:46:18;;;;;;;9.15;4.28;;;23.20;99.90;;;;;;5092189;28;20020;-46
2022/11/08 12:48:52;;;;;;;9.13;5.30;;;23.20;99.90;;;;;;5072671;28;20036;-45
2022/11/08 12:51:56;;;;;;;8.13;5.20;;;23.20;99.90;;;;;;5092143;28;20024;-45
2022/11/08 12:54:46;;;;;;;10.73;4.60;;;23.20;99.90;;;;;;5092125;28;20034;-44
2022/11/08 12:57:15;;;;;;;12.35;6.90;;;23.10;99.90;;;;;;5091546;28;20475;-44
2022/11/08 12:59:49;;;;;;;16.08;6.00;;;23.10;99.90;;;;;;5090134;28;20560;-44
2022/11/08 13:02:26;;;;;;;9.80;4.60;;;23.10;99.90;;;;;;5077014;28;20036;-45
2022/11/08 13:04:58;;;;;;;9.57;4.00;;;23.10;99.90;;;;;;5092290;28;20072;-44
2022/11/08 13:07:46;;;;;;;8.73;4.50;;;23.10;99.90;;;;;;5092607;28;20044;-44
2022/11/08 13:10:29;;;;;;;10.57;5.40;;;23.10;99.90;;;;;;5086562;28;20495;-44
2022/11/08 13:13:06;;;;;;;15.07;7.28;;;23.10;99.90;;;;;;5087074;28;20498;-44
2022/11/08 13:15:32;;;;;;;22.13;16.75;;;23.10;99.90;;;;;;5092100;28;20028;-45
2022/11/08 13:18:06;;;;;;;9.07;4.93;;;23.10;99.90;;;;;;5092186;28;20478;-45
2022/11/08 13:20:45;;;;;;;5.97;3.10;;;23.10;99.90;;;;;;5090532;28;20026;-44
2022/11/08 13:23:30;;;;;;;10.57;4.47;;;23.10;99.90;;;;;;5092156;28;20027;-44
2022/11/08 13:26:21;;;;;;;14.07;6.35;;;23.10;99.90;;;;;;5090830;28;20027;-45